sensor_id;sensor_type;location;lat;lon;timestamp;P1;durP1;ratioP1;P2;durP2;ratioP2
6362;SDS011;3214;49.932;8.494;2024-01-30T00:01:06;22.53;;;12.23;;
6362;SDS011;3214;49.932;8.494;2024-01-30T00:04:05;20.97;;;12.77;;
6362;SDS011;3214;49.932;8.494;2024-01-30T00:06:50;20.97;;;12.50;;
6362;SDS011;3214;49.932;8.494;2024-01-30T00:09:29;22.57;;;13.70;;
6362;SDS011;3214;49.932;8.494;2024-01-30T00:12:08;21.23;;;13.50;;
6362;SDS011;3214;49.932;8.494;2024-01-30T00:14:41;21.07;;;13.20;;
6362;SDS011;3214;49.932;8.494;2024-01-30T00:17:40;21.27;;;12.30;;
6362;SDS011;3214;49.932;8.494;2024-01-30T00:20:29;21.23;;;12.03;;
6362;SDS011;3214;49.932;8.494;2024-01-30T00:23:01;21.37;;;12.87;;
6362;SDS011;3214;49.932;8.494;2024-01-30T00:25:44;22.80;;;12.53;;
6362;SDS011;3214;49.932;8.494;2024-01-30T00:28:25;21.40;;;13.10;;
6362;SDS011;3214;49.932;8.494;2024-01-30T00:31:05;21.33;;;12.50;;
6362;SDS011;3214;49.932;8.494;2024-01-30T00:33:49;22.93;;;13.10;;
6362;SDS011;3214;49.932;8.494;2024-01-30T00:36:25;18.07;;;11.80;;
6362;SDS011;3214;49.932;8.494;2024-01-30T00:39:17;18.03;;;11.40;;
6362;SDS011;3214;49.932;8.494;2024-01-30T00:41:53;17.30;;;11.07;;
6362;SDS011;3214;49.932;8.494;2024-01-30T00:44:28;16.90;;;11.00;;
6362;SDS011;3214;49.932;8.494;2024-01-30T00:47:06;17.80;;;10.90;;
6362;SDS011;3214;49.932;8.494;2024-01-30T00:49:56;18.27;;;10.90;;
6362;SDS011;3214;49.932;8.494;2024-01-30T00:52:35;18.23;;;11.20;;
6362;SDS011;3214;49.932;8.494;2024-01-30T00:55:12;19.50;;;11.47;;
6362;SDS011;3214;49.932;8.494;2024-01-30T00:57:53;20.87;;;12.23;;
6362;SDS011;3214;49.932;8.494;2024-01-30T01:00:30;24.93;;;12.73;;
6362;SDS011;3214;49.932;8.494;2024-01-30T01:03:30;21.00;;;12.73;;
6362;SDS011;3214;49.932;8.494;2024-01-30T01:06:22;20.53;;;12.33;;
6362;SDS011;3214;49.932;8.494;2024-01-30T01:09:13;20.77;;;12.37;;
6362;SDS011;3214;49.932;8.494;2024-01-30T01:11:53;22.27;;;11.87;;
6362;SDS011;3214;49.932;8.494;2024-01-30T01:14:41;19.80;;;12.43;;
6362;SDS011;3214;49.932;8.494;2024-01-30T01:17:17;20.53;;;12.30;;
6362;SDS011;3214;49.932;8.494;2024-01-30T01:19:52;19.23;;;12.10;;
6362;SDS011;3214;49.932;8.494;2024-01-30T01:22:39;20.00;;;12.10;;
6362;SDS011;3214;49.932;8.494;2024-01-30T01:25:30;22.07;;;12.37;;
6362;SDS011;3214;49.932;8.494;2024-01-30T01:28:08;18.40;;;11.67;;
6362;SDS011;3214;49.932;8.494;2024-01-30T01:30:37;19.30;;;12.17;;
6362;SDS011;3214;49.932;8.494;2024-01-30T01:33:30;22.70;;;11.73;;
6362;SDS011;3214;49.932;8.494;2024-01-30T01:36:12;19.53;;;11.93;;
6362;SDS011;3214;49.932;8.494;2024-01-30T01:38:49;19.03;;;11.80;;
6362;SDS011;3214;49.932;8.494;2024-01-30T01:41:42;22.10;;;12.10;;
6362;SDS011;3214;49.932;8.494;2024-01-30T01:44:18;17.30;;;11.40;;
6362;SDS011;3214;49.932;8.494;2024-01-30T01:46:50;18.60;;;12.17;;
6362;SDS011;3214;49.932;8.494;2024-01-30T01:49:32;19.60;;;11.47;;
6362;SDS011;3214;49.932;8.494;2024-01-30T01:52:18;18.27;;;11.03;;
6362;SDS011;3214;49.932;8.494;2024-01-30T01:54:47;26.13;;;12.10;;
6362;SDS011;3214;49.932;8.494;2024-01-30T01:57:28;20.97;;;13.47;;
6362;SDS011;3214;49.932;8.494;2024-01-30T02:00:21;24.83;;;14.03;;
6362;SDS011;3214;49.932;8.494;2024-01-30T02:02:54;21.57;;;13.30;;
6362;SDS011;3214;49.932;8.494;2024-01-30T02:05:31;29.17;;;14.83;;
6362;SDS011;3214;49.932;8.494;2024-01-30T02:08:01;27.43;;;15.63;;
6362;SDS011;3214;49.932;8.494;2024-01-30T02:10:59;24.73;;;14.37;;
6362;SDS011;3214;49.932;8.494;2024-01-30T02:13:32;25.10;;;14.40;;
6362;SDS011;3214;49.932;8.494;2024-01-30T02:16:21;23.63;;;13.67;;
6362;SDS011;3214;49.932;8.494;2024-01-30T02:18:57;20.60;;;12.70;;
6362;SDS011;3214;49.932;8.494;2024-01-30T02:21:48;20.17;;;12.00;;
6362;SDS011;3214;49.932;8.494;2024-01-30T02:24:29;24.63;;;11.67;;
6362;SDS011;3214;49.932;8.494;2024-01-30T02:27:09;22.77;;;12.67;;
6362;SDS011;3214;49.932;8.494;2024-01-30T02:30:04;24.80;;;12.93;;
6362;SDS011;3214;49.932;8.494;2024-01-30T02:32:38;21.43;;;12.77;;
6362;SDS011;3214;49.932;8.494;2024-01-30T02:35:09;24.10;;;13.33;;
6362;SDS011;3214;49.932;8.494;2024-01-30T02:37:47;20.23;;;13.07;;
6362;SDS011;3214;49.932;8.494;2024-01-30T02:40:37;22.77;;;13.47;;
6362;SDS011;3214;49.932;8.494;2024-01-30T02:43:09;21.50;;;13.20;;
6362;SDS011;3214;49.932;8.494;2024-01-30T02:45:53;22.77;;;13.23;;
6362;SDS011;3214;49.932;8.494;2024-01-30T02:48:26;20.93;;;12.90;;
6362;SDS011;3214;49.932;8.494;2024-01-30T02:51:10;21.73;;;12.37;;
6362;SDS011;3214;49.932;8.494;2024-01-30T02:53:46;19.80;;;11.57;;
6362;SDS011;3214;49.932;8.494;2024-01-30T02:56:22;20.97;;;12.23;;
6362;SDS011;3214;49.932;8.494;2024-01-30T03:01:57;19.93;;;11.93;;
6362;SDS011;3214;49.932;8.494;2024-01-30T03:04:43;18.03;;;11.20;;
6362;SDS011;3214;49.932;8.494;2024-01-30T03:07:42;17.60;;;10.60;;
6362;SDS011;3214;49.932;8.494;2024-01-30T03:10:20;17.83;;;10.80;;
6362;SDS011;3214;49.932;8.494;2024-01-30T03:12:57;18.47;;;11.17;;
6362;SDS011;3214;49.932;8.494;2024-01-30T03:15:43;20.00;;;11.43;;
6362;SDS011;3214;49.932;8.494;2024-01-30T03:18:30;17.83;;;11.07;;
6362;SDS011;3214;49.932;8.494;2024-01-30T03:21:04;18.47;;;10.93;;
6362;SDS011;3214;49.932;8.494;2024-01-30T03:23:41;18.10;;;10.37;;
6362;SDS011;3214;49.932;8.494;2024-01-30T03:26:17;16.07;;;10.50;;
6362;SDS011;3214;49.932;8.494;2024-01-30T03:28:52;14.87;;;9.80;;
6362;SDS011;3214;49.932;8.494;2024-01-30T03:31:59;18.63;;;10.43;;
6362;SDS011;3214;49.932;8.494;2024-01-30T03:34:38;16.20;;;10.67;;
6362;SDS011;3214;49.932;8.494;2024-01-30T03:37:12;18.97;;;10.93;;
6362;SDS011;3214;49.932;8.494;2024-01-30T03:39:55;16.73;;;11.03;;
6362;SDS011;3214;49.932;8.494;2024-01-30T03:42:26;19.40;;;11.60;;
6362;SDS011;3214;49.932;8.494;2024-01-30T03:45:10;17.80;;;11.30;;
6362;SDS011;3214;49.932;8.494;2024-01-30T03:47:57;20.83;;;12.70;;
6362;SDS011;3214;49.932;8.494;2024-01-30T03:50:30;19.77;;;11.73;;
6362;SDS011;3214;49.932;8.494;2024-01-30T03:53:24;16.63;;;11.20;;
6362;SDS011;3214;49.932;8.494;2024-01-30T03:56:07;17.47;;;10.60;;
6362;SDS011;3214;49.932;8.494;2024-01-30T03:58:42;17.97;;;11.13;;
6362;SDS011;3214;49.932;8.494;2024-01-30T04:01:15;19.87;;;11.27;;
6362;SDS011;3214;49.932;8.494;2024-01-30T04:03:52;20.63;;;11.57;;
6362;SDS011;3214;49.932;8.494;2024-01-30T04:06:30;18.83;;;11.20;;
6362;SDS011;3214;49.932;8.494;2024-01-30T04:09:34;17.20;;;9.93;;
6362;SDS011;3214;49.932;8.494;2024-01-30T04:12:08;17.23;;;10.77;;
6362;SDS011;3214;49.932;8.494;2024-01-30T04:14:49;19.33;;;10.97;;
6362;SDS011;3214;49.932;8.494;2024-01-30T04:17:27;17.93;;;10.73;;
6362;SDS011;3214;49.932;8.494;2024-01-30T04:20:04;17.77;;;10.57;;
6362;SDS011;3214;49.932;8.494;2024-01-30T04:22:38;16.23;;;10.60;;
6362;SDS011;3214;49.932;8.494;2024-01-30T04:25:20;16.60;;;10.80;;
6362;SDS011;3214;49.932;8.494;2024-01-30T04:27:55;16.00;;;10.03;;
6362;SDS011;3214;49.932;8.494;2024-01-30T04:30:34;20.17;;;10.53;;
6362;SDS011;3214;49.932;8.494;2024-01-30T04:33:18;16.70;;;10.67;;
6362;SDS011;3214;49.932;8.494;2024-01-30T04:35:50;17.80;;;10.93;;
6362;SDS011;3214;49.932;8.494;2024-01-30T04:38:32;18.33;;;11.00;;
6362;SDS011;3214;49.932;8.494;2024-01-30T04:41:20;19.03;;;10.83;;
6362;SDS011;3214;49.932;8.494;2024-01-30T04:44:12;20.63;;;11.70;;
6362;SDS011;3214;49.932;8.494;2024-01-30T04:47:15;19.57;;;11.03;;
6362;SDS011;3214;49.932;8.494;2024-01-30T04:50:18;18.60;;;10.60;;
6362;SDS011;3214;49.932;8.494;2024-01-30T04:52:45;20.03;;;11.63;;
6362;SDS011;3214;49.932;8.494;2024-01-30T04:55:30;17.90;;;11.37;;
6362;SDS011;3214;49.932;8.494;2024-01-30T04:58:05;18.70;;;10.83;;
6362;SDS011;3214;49.932;8.494;2024-01-30T05:00:49;18.20;;;10.87;;
6362;SDS011;3214;49.932;8.494;2024-01-30T05:03:32;18.17;;;11.40;;
6362;SDS011;3214;49.932;8.494;2024-01-30T05:06:02;17.30;;;10.20;;
6362;SDS011;3214;49.932;8.494;2024-01-30T05:08:38;17.73;;;10.63;;
6362;SDS011;3214;49.932;8.494;2024-01-30T05:11:07;24.30;;;11.00;;
6362;SDS011;3214;49.932;8.494;2024-01-30T05:13:34;18.30;;;10.80;;
6362;SDS011;3214;49.932;8.494;2024-01-30T05:16:04;18.00;;;10.77;;
6362;SDS011;3214;49.932;8.494;2024-01-30T05:18:45;18.23;;;10.87;;
6362;SDS011;3214;49.932;8.494;2024-01-30T05:21:26;16.20;;;10.23;;
6362;SDS011;3214;49.932;8.494;2024-01-30T05:24:05;19.13;;;10.67;;
6362;SDS011;3214;49.932;8.494;2024-01-30T05:26:46;15.43;;;10.40;;
6362;SDS011;3214;49.932;8.494;2024-01-30T05:29:23;20.13;;;11.10;;
6362;SDS011;3214;49.932;8.494;2024-01-30T05:32:01;15.67;;;10.17;;
6362;SDS011;3214;49.932;8.494;2024-01-30T05:34:35;22.00;;;10.90;;
6362;SDS011;3214;49.932;8.494;2024-01-30T05:37:15;18.80;;;10.27;;
6362;SDS011;3214;49.932;8.494;2024-01-30T05:39:43;19.33;;;11.23;;
6362;SDS011;3214;49.932;8.494;2024-01-30T05:42:28;17.23;;;10.00;;
6362;SDS011;3214;49.932;8.494;2024-01-30T05:45:19;15.57;;;9.50;;
6362;SDS011;3214;49.932;8.494;2024-01-30T05:48:13;21.67;;;11.53;;
6362;SDS011;3214;49.932;8.494;2024-01-30T05:50:47;17.50;;;10.67;;
6362;SDS011;3214;49.932;8.494;2024-01-30T05:53:30;16.93;;;10.10;;
6362;SDS011;3214;49.932;8.494;2024-01-30T05:56:19;18.60;;;10.77;;
6362;SDS011;3214;49.932;8.494;2024-01-30T05:58:53;17.17;;;10.13;;
6362;SDS011;3214;49.932;8.494;2024-01-30T06:05:22;15.73;;;9.83;;
6362;SDS011;3214;49.932;8.494;2024-01-30T06:15:00;17.83;;;10.47;;
6362;SDS011;3214;49.932;8.494;2024-01-30T06:17:50;16.17;;;9.23;;
6362;SDS011;3214;49.932;8.494;2024-01-30T06:20:34;17.90;;;10.57;;
6362;SDS011;3214;49.932;8.494;2024-01-30T06:24:04;20.87;;;10.57;;
6362;SDS011;3214;49.932;8.494;2024-01-30T06:27:11;16.77;;;10.77;;
6362;SDS011;3214;49.932;8.494;2024-01-30T06:31:18;18.40;;;10.80;;
6362;SDS011;3214;49.932;8.494;2024-01-30T06:33:30;19.03;;;11.33;;
6362;SDS011;3214;49.932;8.494;2024-01-30T06:36:10;20.17;;;12.40;;
6362;SDS011;3214;49.932;8.494;2024-01-30T06:39:19;22.10;;;12.73;;
6362;SDS011;3214;49.932;8.494;2024-01-30T06:45:40;22.50;;;12.20;;
6362;SDS011;3214;49.932;8.494;2024-01-30T06:51:41;23.50;;;12.43;;
6362;SDS011;3214;49.932;8.494;2024-01-30T06:58:36;23.07;;;12.10;;
6362;SDS011;3214;49.932;8.494;2024-01-30T07:07:57;23.07;;;12.43;;
6362;SDS011;3214;49.932;8.494;2024-01-30T07:11:40;21.70;;;12.33;;
6362;SDS011;3214;49.932;8.494;2024-01-30T07:46:01;19.50;;;12.43;;
6362;SDS011;3214;49.932;8.494;2024-01-30T07:48:47;21.30;;;12.53;;
6362;SDS011;3214;49.932;8.494;2024-01-30T07:51:22;23.83;;;13.87;;
6362;SDS011;3214;49.932;8.494;2024-01-30T07:54:08;30.73;;;16.37;;
6362;SDS011;3214;49.932;8.494;2024-01-30T08:07:13;39.93;;;19.40;;
6362;SDS011;3214;49.932;8.494;2024-01-30T08:13:16;33.87;;;18.57;;
6362;SDS011;3214;49.932;8.494;2024-01-30T08:16:16;27.57;;;14.63;;
6362;SDS011;3214;49.932;8.494;2024-01-30T08:22:43;26.23;;;14.37;;
6362;SDS011;3214;49.932;8.494;2024-01-30T08:25:56;23.50;;;14.33;;
6362;SDS011;3214;49.932;8.494;2024-01-30T08:29:01;27.40;;;15.07;;
6362;SDS011;3214;49.932;8.494;2024-01-30T08:32:06;27.40;;;14.77;;
6362;SDS011;3214;49.932;8.494;2024-01-30T08:35:01;25.67;;;14.00;;
6362;SDS011;3214;49.932;8.494;2024-01-30T08:45:31;24.90;;;12.67;;
6362;SDS011;3214;49.932;8.494;2024-01-30T08:48:19;23.63;;;13.07;;
6362;SDS011;3214;49.932;8.494;2024-01-30T08:57:43;27.27;;;15.73;;
6362;SDS011;3214;49.932;8.494;2024-01-30T09:00:51;30.33;;;15.57;;
6362;SDS011;3214;49.932;8.494;2024-01-30T09:04:05;30.07;;;15.93;;
6362;SDS011;3214;49.932;8.494;2024-01-30T09:07:29;28.53;;;16.30;;
6362;SDS011;3214;49.932;8.494;2024-01-30T09:24:04;31.17;;;15.60;;
6362;SDS011;3214;49.932;8.494;2024-01-30T09:30:26;26.73;;;15.77;;
6362;SDS011;3214;49.932;8.494;2024-01-30T09:33:47;33.73;;;17.43;;
6362;SDS011;3214;49.932;8.494;2024-01-30T09:37:25;32.30;;;17.80;;
6362;SDS011;3214;49.932;8.494;2024-01-30T09:39:44;30.57;;;17.10;;
6362;SDS011;3214;49.932;8.494;2024-01-30T09:49:59;26.83;;;16.80;;
6362;SDS011;3214;49.932;8.494;2024-01-30T09:55:34;27.40;;;17.87;;
6362;SDS011;3214;49.932;8.494;2024-01-30T10:02:00;26.70;;;16.67;;
6362;SDS011;3214;49.932;8.494;2024-01-30T10:08:00;26.43;;;17.03;;
6362;SDS011;3214;49.932;8.494;2024-01-30T10:18:07;29.97;;;17.37;;
6362;SDS011;3214;49.932;8.494;2024-01-30T10:37:39;33.17;;;17.83;;
6362;SDS011;3214;49.932;8.494;2024-01-30T10:40:29;28.57;;;16.77;;
6362;SDS011;3214;49.932;8.494;2024-01-30T10:43:47;24.23;;;16.97;;
6362;SDS011;3214;49.932;8.494;2024-01-30T10:46:56;26.53;;;17.80;;
6362;SDS011;3214;49.932;8.494;2024-01-30T10:56:26;26.17;;;17.30;;
6362;SDS011;3214;49.932;8.494;2024-01-30T10:59:30;24.77;;;16.30;;
6362;SDS011;3214;49.932;8.494;2024-01-30T11:02:20;28.87;;;17.73;;
6362;SDS011;3214;49.932;8.494;2024-01-30T11:05:52;26.97;;;18.10;;
6362;SDS011;3214;49.932;8.494;2024-01-30T11:17:41;25.83;;;17.73;;
6362;SDS011;3214;49.932;8.494;2024-01-30T11:20:58;25.53;;;17.67;;
6362;SDS011;3214;49.932;8.494;2024-01-30T11:24:04;25.57;;;17.37;;
6362;SDS011;3214;49.932;8.494;2024-01-30T11:27:26;26.00;;;17.33;;
6362;SDS011;3214;49.932;8.494;2024-01-30T11:33:46;26.57;;;16.30;;
6362;SDS011;3214;49.932;8.494;2024-01-30T11:40:28;28.97;;;16.83;;
6362;SDS011;3214;49.932;8.494;2024-01-30T11:46:50;25.77;;;17.00;;
6362;SDS011;3214;49.932;8.494;2024-01-30T11:50:06;24.57;;;17.17;;
6362;SDS011;3214;49.932;8.494;2024-01-30T11:53:30;24.37;;;16.50;;
6362;SDS011;3214;49.932;8.494;2024-01-30T11:56:41;26.00;;;16.47;;
6362;SDS011;3214;49.932;8.494;2024-01-30T11:59:19;27.13;;;17.17;;
6362;SDS011;3214;49.932;8.494;2024-01-30T12:09:20;27.43;;;17.07;;
6362;SDS011;3214;49.932;8.494;2024-01-30T12:15:21;27.40;;;17.30;;
6362;SDS011;3214;49.932;8.494;2024-01-30T12:18:49;25.30;;;17.43;;
6362;SDS011;3214;49.932;8.494;2024-01-30T12:28:11;28.30;;;17.20;;
6362;SDS011;3214;49.932;8.494;2024-01-30T12:31:11;26.73;;;17.57;;
6362;SDS011;3214;49.932;8.494;2024-01-30T12:34:30;27.00;;;17.33;;
6362;SDS011;3214;49.932;8.494;2024-01-30T12:37:46;26.43;;;17.53;;
6362;SDS011;3214;49.932;8.494;2024-01-30T12:44:47;26.90;;;17.37;;
6362;SDS011;3214;49.932;8.494;2024-01-30T12:47:33;26.90;;;18.10;;
6362;SDS011;3214;49.932;8.494;2024-01-30T12:53:51;25.27;;;16.60;;
6362;SDS011;3214;49.932;8.494;2024-01-30T12:57:04;25.97;;;17.10;;
6362;SDS011;3214;49.932;8.494;2024-01-30T13:17:32;26.00;;;16.90;;
6362;SDS011;3214;49.932;8.494;2024-01-30T13:20:59;23.63;;;17.30;;
6362;SDS011;3214;49.932;8.494;2024-01-30T13:23:51;26.20;;;16.73;;
6362;SDS011;3214;49.932;8.494;2024-01-30T13:26:49;24.57;;;16.67;;
6362;SDS011;3214;49.932;8.494;2024-01-30T13:29:39;25.27;;;16.40;;
6362;SDS011;3214;49.932;8.494;2024-01-30T13:47:10;25.40;;;15.37;;
6362;SDS011;3214;49.932;8.494;2024-01-30T14:26:41;18.47;;;11.77;;
6362;SDS011;3214;49.932;8.494;2024-01-30T14:29:30;19.60;;;13.03;;
6362;SDS011;3214;49.932;8.494;2024-01-30T14:38:55;22.47;;;13.73;;
6362;SDS011;3214;49.932;8.494;2024-01-30T14:41:49;22.03;;;14.27;;
6362;SDS011;3214;49.932;8.494;2024-01-30T14:44:33;20.23;;;14.30;;
6362;SDS011;3214;49.932;8.494;2024-01-30T14:47:25;21.00;;;14.77;;
6362;SDS011;3214;49.932;8.494;2024-01-30T14:50:49;28.60;;;15.43;;
6362;SDS011;3214;49.932;8.494;2024-01-30T14:53:32;24.27;;;14.50;;
6362;SDS011;3214;49.932;8.494;2024-01-30T15:00:20;26.20;;;14.37;;
6362;SDS011;3214;49.932;8.494;2024-01-30T15:03:10;35.00;;;14.80;;
6362;SDS011;3214;49.932;8.494;2024-01-30T15:06:24;23.33;;;15.20;;
6362;SDS011;3214;49.932;8.494;2024-01-30T15:19:26;24.87;;;14.43;;
6362;SDS011;3214;49.932;8.494;2024-01-30T15:22:20;24.57;;;14.53;;
6362;SDS011;3214;49.932;8.494;2024-01-30T15:27:57;24.33;;;13.90;;
6362;SDS011;3214;49.932;8.494;2024-01-30T15:30:55;22.10;;;13.83;;
6362;SDS011;3214;49.932;8.494;2024-01-30T15:33:38;21.63;;;13.60;;
6362;SDS011;3214;49.932;8.494;2024-01-30T15:39:28;22.27;;;14.40;;
6362;SDS011;3214;49.932;8.494;2024-01-30T15:48:51;27.87;;;16.27;;
6362;SDS011;3214;49.932;8.494;2024-01-30T15:51:56;26.47;;;16.93;;
6362;SDS011;3214;49.932;8.494;2024-01-30T15:54:56;24.87;;;16.40;;
6362;SDS011;3214;49.932;8.494;2024-01-30T15:57:48;25.93;;;16.43;;
6362;SDS011;3214;49.932;8.494;2024-01-30T16:00:28;28.30;;;16.50;;
6362;SDS011;3214;49.932;8.494;2024-01-30T16:03:08;26.70;;;17.87;;
6362;SDS011;3214;49.932;8.494;2024-01-30T16:05:53;25.23;;;17.27;;
6362;SDS011;3214;49.932;8.494;2024-01-30T16:08:23;27.53;;;16.97;;
6362;SDS011;3214;49.932;8.494;2024-01-30T16:11:04;31.20;;;17.57;;
6362;SDS011;3214;49.932;8.494;2024-01-30T16:13:31;25.43;;;16.53;;
6362;SDS011;3214;49.932;8.494;2024-01-30T16:15:58;24.80;;;17.33;;
6362;SDS011;3214;49.932;8.494;2024-01-30T16:18:52;24.80;;;17.40;;
6362;SDS011;3214;49.932;8.494;2024-01-30T16:24:39;29.47;;;19.40;;
6362;SDS011;3214;49.932;8.494;2024-01-30T16:30:38;27.47;;;19.13;;
6362;SDS011;3214;49.932;8.494;2024-01-30T16:33:10;30.77;;;19.47;;
6362;SDS011;3214;49.932;8.494;2024-01-30T16:35:55;29.50;;;18.80;;
6362;SDS011;3214;49.932;8.494;2024-01-30T16:38:24;30.00;;;19.27;;
6362;SDS011;3214;49.932;8.494;2024-01-30T16:41:11;29.63;;;18.87;;
6362;SDS011;3214;49.932;8.494;2024-01-30T16:43:48;29.23;;;18.73;;
6362;SDS011;3214;49.932;8.494;2024-01-30T16:46:32;31.60;;;19.23;;
6362;SDS011;3214;49.932;8.494;2024-01-30T16:49:07;26.77;;;17.93;;
6362;SDS011;3214;49.932;8.494;2024-01-30T16:52:17;28.93;;;18.23;;
6362;SDS011;3214;49.932;8.494;2024-01-30T16:54:57;32.23;;;18.60;;
6362;SDS011;3214;49.932;8.494;2024-01-30T16:57:47;29.00;;;17.70;;
6362;SDS011;3214;49.932;8.494;2024-01-30T17:00:25;29.03;;;17.73;;
6362;SDS011;3214;49.932;8.494;2024-01-30T17:03:08;26.63;;;17.93;;
6362;SDS011;3214;49.932;8.494;2024-01-30T17:05:57;28.90;;;18.57;;
6362;SDS011;3214;49.932;8.494;2024-01-30T17:11:42;30.80;;;18.53;;
6362;SDS011;3214;49.932;8.494;2024-01-30T17:14:21;27.90;;;18.70;;
6362;SDS011;3214;49.932;8.494;2024-01-30T17:16:53;25.90;;;18.13;;
6362;SDS011;3214;49.932;8.494;2024-01-30T17:19:39;29.60;;;18.83;;
6362;SDS011;3214;49.932;8.494;2024-01-30T17:22:22;27.30;;;17.60;;
6362;SDS011;3214;49.932;8.494;2024-01-30T17:25:21;29.73;;;18.47;;
6362;SDS011;3214;49.932;8.494;2024-01-30T17:28:06;28.30;;;18.23;;
6362;SDS011;3214;49.932;8.494;2024-01-30T17:31:01;29.07;;;19.40;;
6362;SDS011;3214;49.932;8.494;2024-01-30T17:34:02;28.30;;;18.60;;
6362;SDS011;3214;49.932;8.494;2024-01-30T17:37:06;30.53;;;18.07;;
6362;SDS011;3214;49.932;8.494;2024-01-30T17:43:17;26.00;;;18.33;;
6362;SDS011;3214;49.932;8.494;2024-01-30T17:46:23;30.80;;;19.20;;
6362;SDS011;3214;49.932;8.494;2024-01-30T17:52:26;30.10;;;19.47;;
6362;SDS011;3214;49.932;8.494;2024-01-30T17:55:02;29.13;;;19.43;;
6362;SDS011;3214;49.932;8.494;2024-01-30T17:57:32;30.27;;;19.93;;
6362;SDS011;3214;49.932;8.494;2024-01-30T18:00:12;30.03;;;20.33;;
6362;SDS011;3214;49.932;8.494;2024-01-30T18:03:01;34.50;;;21.17;;
6362;SDS011;3214;49.932;8.494;2024-01-30T18:05:32;34.93;;;21.57;;
6362;SDS011;3214;49.932;8.494;2024-01-30T18:08:00;32.13;;;21.43;;
6362;SDS011;3214;49.932;8.494;2024-01-30T18:10:31;34.60;;;21.67;;
6362;SDS011;3214;49.932;8.494;2024-01-30T18:13:00;32.87;;;20.73;;
6362;SDS011;3214;49.932;8.494;2024-01-30T18:15:39;34.03;;;21.67;;
6362;SDS011;3214;49.932;8.494;2024-01-30T18:18:16;31.20;;;20.73;;
6362;SDS011;3214;49.932;8.494;2024-01-30T18:20:47;39.33;;;22.83;;
6362;SDS011;3214;49.932;8.494;2024-01-30T18:23:29;33.23;;;20.57;;
6362;SDS011;3214;49.932;8.494;2024-01-30T18:26:01;32.03;;;21.40;;
6362;SDS011;3214;49.932;8.494;2024-01-30T18:28:33;33.47;;;21.10;;
6362;SDS011;3214;49.932;8.494;2024-01-30T18:31:03;36.57;;;21.57;;
6362;SDS011;3214;49.932;8.494;2024-01-30T18:33:31;33.53;;;21.43;;
6362;SDS011;3214;49.932;8.494;2024-01-30T18:35:58;31.43;;;20.80;;
6362;SDS011;3214;49.932;8.494;2024-01-30T18:38:38;32.20;;;21.00;;
6362;SDS011;3214;49.932;8.494;2024-01-30T18:41:18;30.90;;;19.97;;
6362;SDS011;3214;49.932;8.494;2024-01-30T18:44:17;28.63;;;20.33;;
6362;SDS011;3214;49.932;8.494;2024-01-30T18:46:54;33.13;;;20.90;;
6362;SDS011;3214;49.932;8.494;2024-01-30T18:49:28;32.33;;;20.30;;
6362;SDS011;3214;49.932;8.494;2024-01-30T18:52:04;30.30;;;20.60;;
6362;SDS011;3214;49.932;8.494;2024-01-30T18:54:49;31.17;;;20.73;;
6362;SDS011;3214;49.932;8.494;2024-01-30T18:57:38;32.87;;;20.60;;
6362;SDS011;3214;49.932;8.494;2024-01-30T19:03:55;29.00;;;21.00;;
6362;SDS011;3214;49.932;8.494;2024-01-30T19:06:40;32.17;;;20.20;;
6362;SDS011;3214;49.932;8.494;2024-01-30T19:09:16;33.40;;;20.40;;
6362;SDS011;3214;49.932;8.494;2024-01-30T19:11:56;31.60;;;21.33;;
6362;SDS011;3214;49.932;8.494;2024-01-30T19:14:29;36.13;;;24.03;;
6362;SDS011;3214;49.932;8.494;2024-01-30T19:17:06;44.00;;;25.70;;
6362;SDS011;3214;49.932;8.494;2024-01-30T19:19:49;45.33;;;27.30;;
6362;SDS011;3214;49.932;8.494;2024-01-30T19:22:25;30.53;;;19.77;;
6362;SDS011;3214;49.932;8.494;2024-01-30T19:24:57;27.63;;;18.07;;
6362;SDS011;3214;49.932;8.494;2024-01-30T19:27:36;27.60;;;17.87;;
6362;SDS011;3214;49.932;8.494;2024-01-30T19:30:17;29.30;;;18.33;;
6362;SDS011;3214;49.932;8.494;2024-01-30T19:32:59;27.77;;;17.97;;
6362;SDS011;3214;49.932;8.494;2024-01-30T19:38:34;24.33;;;16.47;;
6362;SDS011;3214;49.932;8.494;2024-01-30T19:41:13;24.57;;;16.90;;
6362;SDS011;3214;49.932;8.494;2024-01-30T19:43:41;25.60;;;16.97;;
6362;SDS011;3214;49.932;8.494;2024-01-30T19:46:16;24.37;;;16.73;;
6362;SDS011;3214;49.932;8.494;2024-01-30T19:48:57;24.73;;;16.23;;
6362;SDS011;3214;49.932;8.494;2024-01-30T19:51:32;24.07;;;16.67;;
6362;SDS011;3214;49.932;8.494;2024-01-30T19:54:00;29.70;;;16.63;;
6362;SDS011;3214;49.932;8.494;2024-01-30T19:56:27;23.00;;;15.93;;
6362;SDS011;3214;49.932;8.494;2024-01-30T19:59:05;24.37;;;15.80;;
6362;SDS011;3214;49.932;8.494;2024-01-30T20:01:40;27.80;;;17.27;;
6362;SDS011;3214;49.932;8.494;2024-01-30T20:04:10;25.17;;;16.93;;
6362;SDS011;3214;49.932;8.494;2024-01-30T20:06:44;27.13;;;16.37;;
6362;SDS011;3214;49.932;8.494;2024-01-30T20:09:12;24.03;;;16.00;;
6362;SDS011;3214;49.932;8.494;2024-01-30T20:11:40;26.83;;;17.03;;
6362;SDS011;3214;49.932;8.494;2024-01-30T20:14:08;26.87;;;17.47;;
6362;SDS011;3214;49.932;8.494;2024-01-30T20:16:38;27.40;;;16.53;;
6362;SDS011;3214;49.932;8.494;2024-01-30T20:19:09;24.00;;;16.70;;
6362;SDS011;3214;49.932;8.494;2024-01-30T20:21:40;25.10;;;17.27;;
6362;SDS011;3214;49.932;8.494;2024-01-30T20:24:12;23.67;;;16.23;;
6362;SDS011;3214;49.932;8.494;2024-01-30T20:26:42;26.10;;;16.93;;
6362;SDS011;3214;49.932;8.494;2024-01-30T20:29:09;24.80;;;15.50;;
6362;SDS011;3214;49.932;8.494;2024-01-30T20:31:39;24.77;;;16.10;;
6362;SDS011;3214;49.932;8.494;2024-01-30T20:34:06;22.30;;;14.60;;
6362;SDS011;3214;49.932;8.494;2024-01-30T20:36:36;22.60;;;14.13;;
6362;SDS011;3214;49.932;8.494;2024-01-30T20:39:13;20.23;;;13.80;;
6362;SDS011;3214;49.932;8.494;2024-01-30T20:41:49;21.40;;;13.93;;
6362;SDS011;3214;49.932;8.494;2024-01-30T20:44:37;19.77;;;13.87;;
6362;SDS011;3214;49.932;8.494;2024-01-30T20:47:12;23.00;;;13.97;;
6362;SDS011;3214;49.932;8.494;2024-01-30T20:49:45;23.40;;;14.73;;
6362;SDS011;3214;49.932;8.494;2024-01-30T20:52:14;21.07;;;15.07;;
6362;SDS011;3214;49.932;8.494;2024-01-30T20:54:56;24.37;;;14.97;;
6362;SDS011;3214;49.932;8.494;2024-01-30T20:57:27;22.10;;;14.50;;
6362;SDS011;3214;49.932;8.494;2024-01-30T21:00:19;23.17;;;14.27;;
6362;SDS011;3214;49.932;8.494;2024-01-30T21:02:50;25.07;;;14.83;;
6362;SDS011;3214;49.932;8.494;2024-01-30T21:05:29;23.67;;;14.53;;
6362;SDS011;3214;49.932;8.494;2024-01-30T21:08:10;22.27;;;14.57;;
6362;SDS011;3214;49.932;8.494;2024-01-30T21:10:42;21.67;;;14.30;;
6362;SDS011;3214;49.932;8.494;2024-01-30T21:13:20;27.33;;;14.77;;
6362;SDS011;3214;49.932;8.494;2024-01-30T21:15:59;23.30;;;14.77;;
6362;SDS011;3214;49.932;8.494;2024-01-30T21:18:44;23.40;;;13.90;;
6362;SDS011;3214;49.932;8.494;2024-01-30T21:21:19;23.13;;;14.30;;
6362;SDS011;3214;49.932;8.494;2024-01-30T21:24:03;23.97;;;14.67;;
6362;SDS011;3214;49.932;8.494;2024-01-30T21:26:52;31.10;;;18.10;;
6362;SDS011;3214;49.932;8.494;2024-01-30T21:29:24;34.77;;;20.17;;
6362;SDS011;3214;49.932;8.494;2024-01-30T21:31:59;37.53;;;20.57;;
6362;SDS011;3214;49.932;8.494;2024-01-30T21:34:34;37.80;;;20.37;;
6362;SDS011;3214;49.932;8.494;2024-01-30T21:37:05;30.07;;;17.77;;
6362;SDS011;3214;49.932;8.494;2024-01-30T21:39:39;24.77;;;16.17;;
6362;SDS011;3214;49.932;8.494;2024-01-30T21:42:22;23.27;;;15.03;;
6362;SDS011;3214;49.932;8.494;2024-01-30T21:44:59;23.57;;;14.53;;
6362;SDS011;3214;49.932;8.494;2024-01-30T21:47:37;22.00;;;14.90;;
6362;SDS011;3214;49.932;8.494;2024-01-30T21:50:20;23.60;;;14.30;;
6362;SDS011;3214;49.932;8.494;2024-01-30T21:52:49;23.50;;;15.50;;
6362;SDS011;3214;49.932;8.494;2024-01-30T21:55:25;23.67;;;15.10;;
6362;SDS011;3214;49.932;8.494;2024-01-30T21:58:21;21.53;;;14.77;;
6362;SDS011;3214;49.932;8.494;2024-01-30T22:00:57;25.23;;;16.47;;